createdAt,value
2022-09-12T00:04:54.039Z,99612.83
2022-09-12T00:09:57.047Z,99614.02
2022-09-12T00:15:00.170Z,99617.49
2022-09-12T00:20:05.116Z,99618.84
2022-09-12T00:25:09.275Z,99618.14
2022-09-12T00:30:12.632Z,99614.14
2022-09-12T00:35:15.778Z,99617.49
2022-09-12T00:40:18.907Z,99617.05
2022-09-12T00:45:28.867Z,99622.08
2022-09-12T00:50:34.077Z,99618.25
2022-09-12T00:55:43.719Z,99619.97
2022-09-12T01:00:48.391Z,99622.23
2022-09-12T01:06:08.141Z,99621.75
2022-09-12T01:11:13.255Z,99621.84
2022-09-12T01:16:16.905Z,99623.50
2022-09-12T01:21:46.989Z,99621.01
2022-09-12T01:27:27.230Z,99620.81
2022-09-12T01:32:53.442Z,99620.36
2022-09-12T01:38:07.575Z,99617.75
2022-09-12T01:43:17.868Z,99615.85
2022-09-12T01:48:24.945Z,99620.61
2022-09-12T01:53:33.569Z,99618.47
2022-09-12T01:58:56.323Z,99625.26
2022-09-12T02:04:09.814Z,99626.41
2022-09-12T02:09:20.968Z,99627.42
2022-09-12T02:14:33.159Z,99629.64
2022-09-12T02:19:49.427Z,99628.95
2022-09-12T02:24:58.376Z,99628.89
2022-09-12T02:30:00.696Z,99626.18
2022-09-12T02:35:31.065Z,99630.31
2022-09-12T02:40:34.796Z,99625.62
2022-09-12T02:45:38.807Z,99621.08
2022-09-12T02:50:41.878Z,99622.31
2022-09-12T02:55:44.984Z,99626.42
2022-09-12T03:00:51.634Z,99627.70
2022-09-12T03:06:03.125Z,99632.86
2022-09-12T03:11:44.701Z,99636.11
2022-09-12T03:17:03.832Z,99641.34
2022-09-12T03:22:30.837Z,99644.89
2022-09-12T03:27:45.061Z,99643.09
2022-09-12T03:32:50.975Z,99648.33
2022-09-12T03:37:53.805Z,99657.42
2022-09-12T03:42:57.225Z,99662.29
2022-09-12T03:48:00.981Z,99669.33
2022-09-12T03:53:04.524Z,99671.83
2022-09-12T03:58:07.393Z,99668.06
2022-09-12T04:03:11.219Z,99675.54
2022-09-12T04:08:14.259Z,99677.96
2022-09-12T04:13:16.452Z,99683.13
2022-09-12T04:18:18.752Z,99684.56
2022-09-12T04:23:21.093Z,99685.79
2022-09-12T04:28:24.405Z,99689.27
2022-09-12T04:33:27.035Z,99686.69
2022-09-12T04:38:29.362Z,99690.80
2022-09-12T04:43:32.726Z,99694.90
2022-09-12T04:48:35.095Z,99700.95
2022-09-12T04:53:38.464Z,99697.01
2022-09-12T04:58:40.215Z,99703.02
2022-09-12T05:03:44.259Z,99702.01
2022-09-12T05:08:47.086Z,99701.25
2022-09-12T05:13:50.476Z,99704.18
2022-09-12T05:18:53.542Z,99704.79
2022-09-12T05:24:02.528Z,99707.21
2022-09-12T05:29:06.653Z,99704.98
2022-09-12T05:34:10.224Z,99709.88
2022-09-12T05:39:13.864Z,99715.32
2022-09-12T05:44:17.552Z,99715.84
2022-09-12T05:49:21.858Z,99717.92
2022-09-12T05:54:28.319Z,99713.80
2022-09-12T05:59:36.000Z,99715.23
2022-09-12T06:04:43.398Z,99717.77
2022-09-12T06:09:46.994Z,99720.19
2022-09-12T06:14:50.396Z,99721.66
2022-09-12T06:19:56.907Z,99723.55
2022-09-12T06:24:59.475Z,99722.19
2022-09-12T06:30:02.582Z,99721.09
2022-09-12T06:35:05.390Z,99723.20
2022-09-12T06:40:08.324Z,99728.93
2022-09-12T06:45:11.948Z,99727.46
2022-09-12T06:50:14.603Z,99730.23
2022-09-12T06:55:20.994Z,99728.66
2022-09-12T07:00:27.268Z,99729.02
2022-09-12T07:05:29.999Z,99734.20
2022-09-12T07:10:31.911Z,99732.25
2022-09-12T07:15:36.171Z,99734.70
2022-09-12T07:20:39.269Z,99735.95
2022-09-12T07:25:41.697Z,99736.55
2022-09-12T07:30:44.640Z,99742.69
2022-09-12T07:35:47.207Z,99746.84
2022-09-12T07:40:50.893Z,99754.35
2022-09-12T07:45:57.859Z,99761.83
2022-09-12T07:51:01.158Z,99765.53
2022-09-12T07:56:05.554Z,99769.13
2022-09-12T08:01:08.754Z,99767.46
2022-09-12T08:06:16.886Z,99764.09
2022-09-12T08:11:21.354Z,99766.23
2022-09-12T08:16:25.980Z,99767.43
2022-09-12T08:21:31.047Z,99765.88
2022-09-12T08:26:34.339Z,99764.45
2022-09-12T08:31:36.664Z,99767.69
2022-09-12T08:36:38.408Z,99769.24
2022-09-12T08:41:44.002Z,99767.52
2022-09-12T08:47:05.340Z,99774.11
2022-09-12T08:52:16.233Z,99778.19
2022-09-12T08:57:18.135Z,99773.37
2022-09-12T09:02:47.058Z,99778.48
2022-09-12T09:08:05.926Z,99777.60
2022-09-12T09:13:45.603Z,99779.55
2022-09-12T09:18:49.218Z,99779.81
2022-09-12T09:23:59.537Z,99776.71
2022-09-12T09:29:42.239Z,99783.84
2022-09-12T09:34:45.775Z,99782.70
2022-09-12T09:40:20.907Z,99783.91
2022-09-12T09:45:28.163Z,99776.45
2022-09-12T09:50:31.508Z,99777.39
2022-09-12T09:55:43.583Z,99775.17
2022-09-12T10:00:47.827Z,99778.45
2022-09-12T10:05:57.355Z,99780.14
2022-09-12T10:11:02.035Z,99781.30
2022-09-12T10:16:19.003Z,99780.64
2022-09-12T10:21:28.400Z,99788.22
2022-09-12T10:26:39.598Z,99784.95
2022-09-12T10:31:51.473Z,99783.35
2022-09-12T10:37:01.134Z,99780.48
2022-09-12T10:42:05.622Z,99785.73
2022-09-12T10:47:24.229Z,99789.70
2022-09-12T10:52:28.650Z,99789.39
2022-09-12T10:57:51.551Z,99791.08
2022-09-12T11:03:22.020Z,99794.08
2022-09-12T11:08:50.536Z,99796.81
2022-09-12T11:14:19.993Z,99791.38
2022-09-12T11:19:29.812Z,99791.05
2022-09-12T11:24:42.346Z,99786.59
2022-09-12T11:29:49.584Z,99787.08
2022-09-12T11:35:01.018Z,99793.36
2022-09-12T11:40:54.895Z,99791.05
2022-09-12T11:46:10.470Z,99794.63
2022-09-12T11:51:21.140Z,99801.05
2022-09-12T11:56:24.925Z,99796.11
2022-09-12T12:01:46.350Z,99790.32
2022-09-12T12:07:08.706Z,99790.32
2022-09-12T12:12:21.497Z,99790.91
2022-09-12T12:17:26.258Z,99791.55
2022-09-12T12:22:30.961Z,99790.11
2022-09-12T12:27:59.248Z,99790.83
2022-09-12T12:33:15.795Z,99792.21
2022-09-12T12:38:40.413Z,99793.36
2022-09-12T12:43:51.774Z,99792.02
2022-09-12T12:49:22.872Z,99785.40
2022-09-12T12:54:42.506Z,99786.31
2022-09-12T13:00:30.198Z,99783.39
2022-09-12T13:05:49.709Z,99787.59
2022-09-12T13:10:58.345Z,99783.39
2022-09-12T13:16:01.756Z,99793.17
2022-09-12T13:21:22.896Z,99783.89
2022-09-12T13:26:26.405Z,99786.55
2022-09-12T13:31:31.099Z,99783.33
2022-09-12T13:36:50.772Z,99780.95
2022-09-12T13:42:20.999Z,99780.02
2022-09-12T13:47:31.016Z,99769.60
2022-09-12T13:52:37.671Z,99767.98
2022-09-12T13:57:43.835Z,99768.64
2022-09-12T14:02:48.738Z,99773.65
2022-09-12T14:07:58.789Z,99775.00
2022-09-12T14:13:11.818Z,99773.48
2022-09-12T14:18:26.702Z,99773.98
2022-09-12T14:23:33.380Z,99766.57
2022-09-12T14:28:37.150Z,99769.86
2022-09-12T14:33:58.637Z,99769.27
2022-09-12T14:39:07.320Z,99770.27
2022-09-12T14:44:30.706Z,99775.97
2022-09-12T14:49:35.287Z,99769.45
2022-09-12T14:54:39.897Z,99766.28
2022-09-12T14:59:41.798Z,99767.88
2022-09-12T15:04:47.698Z,99774.01
2022-09-12T15:09:50.388Z,99774.20
2022-09-12T15:14:52.727Z,99773.70
2022-09-12T15:19:54.546Z,99769.88
2022-09-12T15:24:58.271Z,99762.46
2022-09-12T15:30:01.355Z,99760.11
2022-09-12T15:35:04.117Z,99754.73
2022-09-12T15:40:07.367Z,99755.87
2022-09-12T15:45:18.329Z,99755.52
2022-09-12T15:50:21.043Z,99758.57
2022-09-12T15:55:32.009Z,99760.62
2022-09-12T16:00:34.102Z,99760.27
2022-09-12T16:05:38.619Z,99760.05
2022-09-12T16:10:43.031Z,99763.19
2022-09-12T16:15:45.172Z,99769.02
2022-09-12T16:20:47.134Z,99777.59
2022-09-12T16:26:00.375Z,99770.27
2022-09-12T16:31:05.338Z,99779.54
2022-09-12T16:36:10.790Z,99773.92
2022-09-12T16:41:13.830Z,99775.63
2022-09-12T16:46:19.241Z,99774.74
2022-09-12T16:51:25.678Z,99772.91
2022-09-12T16:56:28.889Z,99774.46
2022-09-12T17:01:31.823Z,99766.48
2022-09-12T17:06:34.905Z,99767.87
2022-09-12T17:11:39.106Z,99763.50
2022-09-12T17:16:49.264Z,99766.28
2022-09-12T17:21:54.761Z,99765.27
2022-09-12T17:26:57.139Z,99770.44
2022-09-12T17:31:59.224Z,99780.61
2022-09-12T17:37:02.056Z,99783.86
2022-09-12T17:42:08.156Z,99784.80
2022-09-12T17:47:11.118Z,99786.15
2022-09-12T17:52:13.190Z,99791.88
2022-09-12T17:57:15.967Z,99787.05
2022-09-12T18:02:17.941Z,99786.96
2022-09-12T18:07:20.358Z,99790.13
2022-09-12T18:12:23.157Z,99792.98
2022-09-12T18:17:25.837Z,99792.20
2022-09-12T18:22:28.900Z,99793.01
2022-09-12T18:27:32.810Z,99794.55
2022-09-12T18:32:36.522Z,99794.63
2022-09-12T18:37:42.229Z,99789.50
2022-09-12T18:42:44.907Z,99789.95
2022-09-12T18:47:49.108Z,99785.17
2022-09-12T18:52:59.638Z,99783.06
2022-09-12T18:58:04.263Z,99782.38
2022-09-12T19:03:10.216Z,99784.42
2022-09-12T19:08:14.201Z,99781.69
2022-09-12T19:13:17.803Z,99784.36
2022-09-12T19:18:21.000Z,99784.23
2022-09-12T19:23:25.419Z,99782.38
2022-09-12T19:28:30.074Z,99789.22
2022-09-12T19:33:34.669Z,99783.97
2022-09-12T19:38:37.790Z,99784.94
2022-09-12T19:43:42.790Z,99780.73
2022-09-12T19:48:46.496Z,99777.23
2022-09-12T19:53:50.467Z,99771.82
2022-09-12T19:58:56.635Z,99769.73
2022-09-12T20:03:59.511Z,99774.48
2022-09-12T20:09:01.997Z,99767.41
2022-09-12T20:14:04.583Z,99766.52
2022-09-12T20:19:08.493Z,99765.48
2022-09-12T20:24:13.620Z,99764.67
2022-09-12T20:29:16.596Z,99762.34
2022-09-12T20:34:21.605Z,99762.14
2022-09-12T20:39:23.942Z,99766.50
2022-09-12T20:44:27.217Z,99768.11
2022-09-12T20:49:29.393Z,99768.98
2022-09-12T20:54:31.971Z,99772.48
2022-09-12T20:59:34.816Z,99769.05
2022-09-12T21:04:38.032Z,99766.52
2022-09-12T21:09:42.021Z,99768.08
2022-09-12T21:14:46.022Z,99766.33
2022-09-12T21:19:48.707Z,99759.44
2022-09-12T21:24:51.652Z,99757.31
2022-09-12T21:29:55.638Z,99756.30
2022-09-12T21:34:58.933Z,99752.89
2022-09-12T21:40:01.409Z,99752.09
2022-09-12T21:45:04.511Z,99748.37
2022-09-12T21:50:08.131Z,99743.95
2022-09-12T21:55:12.619Z,99747.70
2022-09-12T22:00:18.551Z,99740.78
2022-09-12T22:05:24.368Z,99741.36
2022-09-12T22:10:29.796Z,99742.34
2022-09-12T22:15:41.042Z,99738.74
2022-09-12T22:20:46.331Z,99734.54
2022-09-12T22:25:49.433Z,99731.84
2022-09-12T22:30:55.034Z,99726.89
2022-09-12T22:35:57.469Z,99733.29
2022-09-12T22:41:03.962Z,99726.50
2022-09-12T22:46:08.035Z,99736.59
2022-09-12T22:51:12.253Z,99735.86
2022-09-12T22:56:15.556Z,99732.86
2022-09-12T23:01:19.042Z,99733.00
2022-09-12T23:06:22.294Z,99731.04
2022-09-12T23:11:25.540Z,99732.12
2022-09-12T23:16:31.391Z,99726.94
2022-09-12T23:21:33.889Z,99717.58
2022-09-12T23:26:37.106Z,99717.88
2022-09-12T23:31:40.484Z,99713.48
2022-09-12T23:36:44.304Z,99706.86
2022-09-12T23:41:46.876Z,99701.52
2022-09-12T23:46:49.431Z,99694.84
2022-09-12T23:51:52.708Z,99695.02
2022-09-12T23:56:55.327Z,99691.10
